aviador You're here:

OITP Decoded Metar

PARSABAD in IRAN
Report Time2017-10-17 11:00:00
UTC Time2017-10-17 11:23:23
Flight Rules vfr VFR
Wind140° at 06 kt
W.Decomp.*RWY 11: 5.3 kt HW 2.7 kt RCW
W.Rank140° ranks 9
Current wind is below 140° avg. (8.8)
Visibility9999 m
Phenomena:N/A
Clouds:N/A
Expected CloudBase > 4,000 ft AGL from Temp-Dew spread
CeilingNone
Temp19°C (ISA +4)
Dew Point09°C (52% RH)
AAT16.6°C
QNH1016 hPa
Density Alt833 ft
Elevation251 ft
Report Wrong Elevation
Raw Report
METAR OITP 171100Z 14006KT CAVOK 19/09 Q1016=

Extra information for OITP:More info

Metar Taf Metar & Taf Last 4 Metars F.Rules Stats Wind Profile Meteogram Temp Stats Airport Information Weather charts Add Link Nearby VenuesMetar ALERT Operation Metar Decoded Social comments